sensor_id;sensor_type;location;lat;lon;timestamp;P1;durP1;ratioP1;P2;durP2;ratioP2
16870;SDS011;8552;48.120;-1.456;2023-02-28T00:00:28;11.40;;;5.90;;
16870;SDS011;8552;48.120;-1.456;2023-02-28T00:02:54;11.10;;;5.03;;
16870;SDS011;8552;48.120;-1.456;2023-02-28T00:05:20;9.83;;;6.27;;
16870;SDS011;8552;48.120;-1.456;2023-02-28T00:07:47;8.00;;;4.93;;
16870;SDS011;8552;48.120;-1.456;2023-02-28T00:10:14;6.50;;;4.63;;
16870;SDS011;8552;48.120;-1.456;2023-02-28T00:12:40;7.50;;;5.07;;
16870;SDS011;8552;48.120;-1.456;2023-02-28T00:15:07;6.93;;;4.60;;
16870;SDS011;8552;48.120;-1.456;2023-02-28T00:17:34;8.33;;;4.87;;
16870;SDS011;8552;48.120;-1.456;2023-02-28T00:20:00;7.57;;;4.50;;
16870;SDS011;8552;48.120;-1.456;2023-02-28T00:22:37;6.47;;;4.37;;
16870;SDS011;8552;48.120;-1.456;2023-02-28T00:25:04;9.90;;;4.60;;
16870;SDS011;8552;48.120;-1.456;2023-02-28T00:27:32;10.67;;;4.70;;
16870;SDS011;8552;48.120;-1.456;2023-02-28T00:29:58;9.67;;;4.43;;
16870;SDS011;8552;48.120;-1.456;2023-02-28T00:32:24;7.30;;;4.33;;
16870;SDS011;8552;48.120;-1.456;2023-02-28T00:34:50;7.43;;;4.73;;
16870;SDS011;8552;48.120;-1.456;2023-02-28T00:37:16;6.50;;;4.60;;
16870;SDS011;8552;48.120;-1.456;2023-02-28T00:39:42;8.20;;;5.03;;
16870;SDS011;8552;48.120;-1.456;2023-02-28T00:42:08;7.43;;;4.50;;
16870;SDS011;8552;48.120;-1.456;2023-02-28T00:44:34;8.93;;;5.20;;
16870;SDS011;8552;48.120;-1.456;2023-02-28T00:47:00;8.70;;;4.63;;
16870;SDS011;8552;48.120;-1.456;2023-02-28T00:49:26;6.80;;;4.87;;
16870;SDS011;8552;48.120;-1.456;2023-02-28T00:51:53;9.90;;;4.93;;
16870;SDS011;8552;48.120;-1.456;2023-02-28T00:54:19;6.60;;;4.60;;
16870;SDS011;8552;48.120;-1.456;2023-02-28T00:56:45;8.67;;;4.57;;
16870;SDS011;8552;48.120;-1.456;2023-02-28T00:59:12;7.93;;;4.83;;
16870;SDS011;8552;48.120;-1.456;2023-02-28T01:01:38;7.40;;;4.20;;
16870;SDS011;8552;48.120;-1.456;2023-02-28T01:04:05;7.73;;;4.27;;
16870;SDS011;8552;48.120;-1.456;2023-02-28T01:06:31;8.83;;;4.37;;
16870;SDS011;8552;48.120;-1.456;2023-02-28T01:08:57;6.13;;;4.60;;
16870;SDS011;8552;48.120;-1.456;2023-02-28T01:11:23;7.73;;;4.43;;
16870;SDS011;8552;48.120;-1.456;2023-02-28T01:13:50;8.63;;;4.40;;
16870;SDS011;8552;48.120;-1.456;2023-02-28T01:16:16;7.97;;;4.50;;
16870;SDS011;8552;48.120;-1.456;2023-02-28T01:18:42;6.17;;;4.33;;
16870;SDS011;8552;48.120;-1.456;2023-02-28T01:21:10;12.77;;;5.10;;
16870;SDS011;8552;48.120;-1.456;2023-02-28T01:23:37;7.03;;;4.20;;
16870;SDS011;8552;48.120;-1.456;2023-02-28T01:26:06;7.17;;;4.97;;
16870;SDS011;8552;48.120;-1.456;2023-02-28T01:28:33;11.00;;;5.47;;
16870;SDS011;8552;48.120;-1.456;2023-02-28T01:30:59;6.53;;;4.50;;
16870;SDS011;8552;48.120;-1.456;2023-02-28T01:33:25;6.17;;;4.53;;
16870;SDS011;8552;48.120;-1.456;2023-02-28T01:36:02;9.17;;;4.37;;
16870;SDS011;8552;48.120;-1.456;2023-02-28T01:38:29;7.83;;;4.50;;
16870;SDS011;8552;48.120;-1.456;2023-02-28T01:40:55;5.83;;;4.33;;
16870;SDS011;8552;48.120;-1.456;2023-02-28T01:43:25;6.20;;;4.03;;
16870;SDS011;8552;48.120;-1.456;2023-02-28T01:45:52;6.97;;;4.30;;
16870;SDS011;8552;48.120;-1.456;2023-02-28T01:48:19;7.97;;;4.40;;
16870;SDS011;8552;48.120;-1.456;2023-02-28T01:50:46;8.40;;;4.63;;
16870;SDS011;8552;48.120;-1.456;2023-02-28T01:53:15;7.47;;;4.57;;
16870;SDS011;8552;48.120;-1.456;2023-02-28T01:55:42;10.53;;;4.60;;
16870;SDS011;8552;48.120;-1.456;2023-02-28T01:58:10;6.00;;;4.60;;
16870;SDS011;8552;48.120;-1.456;2023-02-28T02:00:36;6.20;;;4.03;;
16870;SDS011;8552;48.120;-1.456;2023-02-28T02:03:08;8.40;;;5.97;;
16870;SDS011;8552;48.120;-1.456;2023-02-28T02:05:34;6.83;;;4.63;;
16870;SDS011;8552;48.120;-1.456;2023-02-28T02:08:02;8.67;;;4.60;;
16870;SDS011;8552;48.120;-1.456;2023-02-28T02:10:36;8.13;;;5.00;;
16870;SDS011;8552;48.120;-1.456;2023-02-28T02:15:42;7.20;;;4.77;;
16870;SDS011;8552;48.120;-1.456;2023-02-28T02:18:14;10.50;;;4.90;;
16870;SDS011;8552;48.120;-1.456;2023-02-28T02:36:23;8.53;;;5.07;;
16870;SDS011;8552;48.120;-1.456;2023-02-28T02:43:56;9.23;;;5.60;;
16870;SDS011;8552;48.120;-1.456;2023-02-28T02:46:26;7.13;;;4.97;;
16870;SDS011;8552;48.120;-1.456;2023-02-28T02:48:54;7.57;;;4.70;;
16870;SDS011;8552;48.120;-1.456;2023-02-28T02:51:22;10.10;;;5.73;;
16870;SDS011;8552;48.120;-1.456;2023-02-28T02:53:57;8.87;;;5.63;;
16870;SDS011;8552;48.120;-1.456;2023-02-28T02:56:26;9.87;;;6.10;;
16870;SDS011;8552;48.120;-1.456;2023-02-28T02:58:53;7.30;;;5.30;;
16870;SDS011;8552;48.120;-1.456;2023-02-28T03:01:22;7.63;;;5.70;;
16870;SDS011;8552;48.120;-1.456;2023-02-28T03:03:56;8.07;;;6.07;;
16870;SDS011;8552;48.120;-1.456;2023-02-28T03:06:23;7.43;;;5.57;;
16870;SDS011;8552;48.120;-1.456;2023-02-28T03:08:49;9.87;;;5.70;;
16870;SDS011;8552;48.120;-1.456;2023-02-28T03:11:15;11.80;;;5.53;;
16870;SDS011;8552;48.120;-1.456;2023-02-28T03:16:28;8.43;;;5.93;;
16870;SDS011;8552;48.120;-1.456;2023-02-28T03:25:06;9.07;;;6.20;;
16870;SDS011;8552;48.120;-1.456;2023-02-28T03:27:07;8.57;;;5.97;;
16870;SDS011;8552;48.120;-1.456;2023-02-28T03:29:35;8.97;;;5.67;;
16870;SDS011;8552;48.120;-1.456;2023-02-28T03:34:32;13.43;;;6.63;;
16870;SDS011;8552;48.120;-1.456;2023-02-28T03:37:02;9.97;;;6.50;;
16870;SDS011;8552;48.120;-1.456;2023-02-28T03:39:31;10.63;;;5.77;;
16870;SDS011;8552;48.120;-1.456;2023-02-28T03:42:05;9.50;;;6.67;;
16870;SDS011;8552;48.120;-1.456;2023-02-28T03:44:34;13.07;;;6.53;;
16870;SDS011;8552;48.120;-1.456;2023-02-28T03:47:04;12.73;;;6.80;;
16870;SDS011;8552;48.120;-1.456;2023-02-28T03:49:36;10.97;;;6.53;;
16870;SDS011;8552;48.120;-1.456;2023-02-28T03:52:08;13.40;;;7.17;;
16870;SDS011;8552;48.120;-1.456;2023-02-28T03:54:36;11.37;;;6.67;;
16870;SDS011;8552;48.120;-1.456;2023-02-28T03:57:15;9.70;;;6.33;;
16870;SDS011;8552;48.120;-1.456;2023-02-28T03:59:44;8.67;;;6.60;;
16870;SDS011;8552;48.120;-1.456;2023-02-28T04:02:12;11.73;;;6.13;;
16870;SDS011;8552;48.120;-1.456;2023-02-28T04:04:38;10.27;;;6.50;;
16870;SDS011;8552;48.120;-1.456;2023-02-28T04:07:13;12.90;;;7.90;;
16870;SDS011;8552;48.120;-1.456;2023-02-28T04:09:39;12.17;;;7.13;;
16870;SDS011;8552;48.120;-1.456;2023-02-28T04:12:05;12.77;;;7.50;;
16870;SDS011;8552;48.120;-1.456;2023-02-28T04:14:31;12.00;;;7.63;;
16870;SDS011;8552;48.120;-1.456;2023-02-28T04:16:57;11.20;;;7.10;;
16870;SDS011;8552;48.120;-1.456;2023-02-28T04:19:24;14.13;;;7.80;;
16870;SDS011;8552;48.120;-1.456;2023-02-28T04:21:50;11.70;;;7.03;;
16870;SDS011;8552;48.120;-1.456;2023-02-28T04:24:17;12.63;;;7.03;;
16870;SDS011;8552;48.120;-1.456;2023-02-28T04:26:45;14.83;;;7.97;;
16870;SDS011;8552;48.120;-1.456;2023-02-28T04:29:12;12.53;;;7.53;;
16870;SDS011;8552;48.120;-1.456;2023-02-28T04:31:38;12.10;;;7.53;;
16870;SDS011;8552;48.120;-1.456;2023-02-28T04:34:04;11.90;;;7.03;;
16870;SDS011;8552;48.120;-1.456;2023-02-28T04:36:31;10.97;;;7.73;;
16870;SDS011;8552;48.120;-1.456;2023-02-28T04:38:57;13.07;;;7.67;;
16870;SDS011;8552;48.120;-1.456;2023-02-28T04:41:23;15.27;;;7.70;;
16870;SDS011;8552;48.120;-1.456;2023-02-28T04:43:50;17.00;;;8.77;;
16870;SDS011;8552;48.120;-1.456;2023-02-28T04:46:17;11.80;;;6.30;;
16870;SDS011;8552;48.120;-1.456;2023-02-28T04:48:43;12.73;;;7.73;;
16870;SDS011;8552;48.120;-1.456;2023-02-28T04:51:11;13.47;;;7.73;;
16870;SDS011;8552;48.120;-1.456;2023-02-28T04:53:38;11.93;;;8.70;;
16870;SDS011;8552;48.120;-1.456;2023-02-28T04:56:04;11.27;;;8.33;;
16870;SDS011;8552;48.120;-1.456;2023-02-28T04:58:31;11.93;;;7.90;;
16870;SDS011;8552;48.120;-1.456;2023-02-28T05:01:04;12.33;;;7.20;;
16870;SDS011;8552;48.120;-1.456;2023-02-28T05:03:38;10.63;;;7.80;;
16870;SDS011;8552;48.120;-1.456;2023-02-28T05:06:05;11.17;;;7.23;;
16870;SDS011;8552;48.120;-1.456;2023-02-28T05:08:32;10.87;;;7.30;;
16870;SDS011;8552;48.120;-1.456;2023-02-28T05:10:58;15.83;;;9.47;;
16870;SDS011;8552;48.120;-1.456;2023-02-28T05:13:25;12.10;;;8.07;;
16870;SDS011;8552;48.120;-1.456;2023-02-28T05:15:51;11.50;;;8.23;;
16870;SDS011;8552;48.120;-1.456;2023-02-28T05:18:17;14.13;;;8.53;;
16870;SDS011;8552;48.120;-1.456;2023-02-28T05:20:43;12.53;;;8.40;;
16870;SDS011;8552;48.120;-1.456;2023-02-28T05:23:13;16.97;;;10.30;;
16870;SDS011;8552;48.120;-1.456;2023-02-28T05:25:39;13.63;;;8.60;;
16870;SDS011;8552;48.120;-1.456;2023-02-28T05:28:06;13.50;;;8.63;;
16870;SDS011;8552;48.120;-1.456;2023-02-28T05:30:32;17.07;;;9.27;;
16870;SDS011;8552;48.120;-1.456;2023-02-28T05:32:58;15.70;;;9.43;;
16870;SDS011;8552;48.120;-1.456;2023-02-28T05:35:25;13.53;;;8.90;;
16870;SDS011;8552;48.120;-1.456;2023-02-28T05:37:51;13.27;;;8.73;;
16870;SDS011;8552;48.120;-1.456;2023-02-28T05:40:17;13.57;;;8.30;;
16870;SDS011;8552;48.120;-1.456;2023-02-28T05:42:45;13.77;;;9.40;;
16870;SDS011;8552;48.120;-1.456;2023-02-28T05:45:11;20.00;;;9.73;;
16870;SDS011;8552;48.120;-1.456;2023-02-28T05:47:37;15.10;;;9.00;;
16870;SDS011;8552;48.120;-1.456;2023-02-28T05:50:04;15.77;;;8.90;;
16870;SDS011;8552;48.120;-1.456;2023-02-28T05:52:30;15.37;;;9.23;;
16870;SDS011;8552;48.120;-1.456;2023-02-28T05:54:56;17.33;;;9.37;;
16870;SDS011;8552;48.120;-1.456;2023-02-28T05:57:22;14.70;;;8.77;;
16870;SDS011;8552;48.120;-1.456;2023-02-28T05:59:48;14.43;;;9.23;;
16870;SDS011;8552;48.120;-1.456;2023-02-28T06:02:15;16.53;;;8.60;;
16870;SDS011;8552;48.120;-1.456;2023-02-28T06:04:42;17.67;;;10.23;;
16870;SDS011;8552;48.120;-1.456;2023-02-28T06:07:08;16.60;;;10.00;;
16870;SDS011;8552;48.120;-1.456;2023-02-28T06:09:35;17.17;;;9.20;;
16870;SDS011;8552;48.120;-1.456;2023-02-28T06:12:01;14.00;;;9.33;;
16870;SDS011;8552;48.120;-1.456;2023-02-28T06:14:28;15.70;;;10.00;;
16870;SDS011;8552;48.120;-1.456;2023-02-28T06:16:56;12.50;;;9.10;;
16870;SDS011;8552;48.120;-1.456;2023-02-28T06:19:22;15.30;;;9.50;;
16870;SDS011;8552;48.120;-1.456;2023-02-28T06:21:50;13.47;;;9.33;;
16870;SDS011;8552;48.120;-1.456;2023-02-28T06:24:18;17.67;;;9.63;;
16870;SDS011;8552;48.120;-1.456;2023-02-28T06:26:44;17.73;;;9.93;;
16870;SDS011;8552;48.120;-1.456;2023-02-28T06:29:10;16.33;;;9.83;;
16870;SDS011;8552;48.120;-1.456;2023-02-28T06:31:36;18.13;;;9.17;;
16870;SDS011;8552;48.120;-1.456;2023-02-28T06:34:03;16.67;;;9.47;;
16870;SDS011;8552;48.120;-1.456;2023-02-28T06:36:29;16.83;;;10.37;;
16870;SDS011;8552;48.120;-1.456;2023-02-28T06:38:55;15.00;;;10.37;;
16870;SDS011;8552;48.120;-1.456;2023-02-28T06:41:22;18.27;;;10.47;;
16870;SDS011;8552;48.120;-1.456;2023-02-28T06:43:48;19.47;;;10.60;;
16870;SDS011;8552;48.120;-1.456;2023-02-28T06:46:14;15.30;;;9.97;;
16870;SDS011;8552;48.120;-1.456;2023-02-28T06:48:42;14.53;;;9.83;;
16870;SDS011;8552;48.120;-1.456;2023-02-28T06:51:10;16.40;;;10.60;;
16870;SDS011;8552;48.120;-1.456;2023-02-28T06:53:36;16.00;;;9.40;;
16870;SDS011;8552;48.120;-1.456;2023-02-28T06:56:04;16.53;;;10.07;;
16870;SDS011;8552;48.120;-1.456;2023-02-28T06:58:31;18.33;;;10.40;;
16870;SDS011;8552;48.120;-1.456;2023-02-28T07:00:57;16.77;;;10.10;;
16870;SDS011;8552;48.120;-1.456;2023-02-28T07:03:23;16.70;;;10.20;;
16870;SDS011;8552;48.120;-1.456;2023-02-28T07:05:49;20.40;;;10.37;;
16870;SDS011;8552;48.120;-1.456;2023-02-28T07:08:15;16.57;;;10.03;;
16870;SDS011;8552;48.120;-1.456;2023-02-28T07:10:42;16.20;;;10.27;;
16870;SDS011;8552;48.120;-1.456;2023-02-28T07:13:08;17.33;;;10.57;;
16870;SDS011;8552;48.120;-1.456;2023-02-28T07:15:35;21.57;;;10.93;;
16870;SDS011;8552;48.120;-1.456;2023-02-28T07:18:01;22.07;;;11.20;;
16870;SDS011;8552;48.120;-1.456;2023-02-28T07:20:28;17.87;;;10.33;;
16870;SDS011;8552;48.120;-1.456;2023-02-28T07:22:54;23.00;;;10.30;;
16870;SDS011;8552;48.120;-1.456;2023-02-28T07:25:24;20.33;;;12.20;;
16870;SDS011;8552;48.120;-1.456;2023-02-28T07:27:50;20.93;;;13.17;;
16870;SDS011;8552;48.120;-1.456;2023-02-28T07:30:16;19.03;;;11.20;;
16870;SDS011;8552;48.120;-1.456;2023-02-28T07:32:42;23.70;;;12.37;;
16870;SDS011;8552;48.120;-1.456;2023-02-28T07:35:08;21.30;;;11.77;;
16870;SDS011;8552;48.120;-1.456;2023-02-28T07:37:34;18.10;;;11.13;;
16870;SDS011;8552;48.120;-1.456;2023-02-28T07:40:02;19.37;;;11.67;;
16870;SDS011;8552;48.120;-1.456;2023-02-28T07:42:31;20.67;;;12.30;;
16870;SDS011;8552;48.120;-1.456;2023-02-28T07:44:57;23.27;;;11.60;;
16870;SDS011;8552;48.120;-1.456;2023-02-28T07:47:24;26.53;;;12.77;;
16870;SDS011;8552;48.120;-1.456;2023-02-28T07:49:50;17.87;;;11.83;;
16870;SDS011;8552;48.120;-1.456;2023-02-28T07:52:16;24.00;;;14.80;;
16870;SDS011;8552;48.120;-1.456;2023-02-28T07:54:42;23.47;;;14.73;;
16870;SDS011;8552;48.120;-1.456;2023-02-28T07:57:08;25.30;;;15.50;;
16870;SDS011;8552;48.120;-1.456;2023-02-28T07:59:34;19.03;;;11.93;;
16870;SDS011;8552;48.120;-1.456;2023-02-28T08:02:00;27.43;;;18.57;;
16870;SDS011;8552;48.120;-1.456;2023-02-28T08:04:26;21.87;;;12.50;;
16870;SDS011;8552;48.120;-1.456;2023-02-28T08:06:53;17.10;;;10.47;;
16870;SDS011;8552;48.120;-1.456;2023-02-28T08:09:21;25.03;;;12.07;;
16870;SDS011;8552;48.120;-1.456;2023-02-28T08:11:47;20.57;;;14.00;;
16870;SDS011;8552;48.120;-1.456;2023-02-28T08:14:13;22.10;;;13.70;;
16870;SDS011;8552;48.120;-1.456;2023-02-28T08:16:39;23.90;;;13.43;;
16870;SDS011;8552;48.120;-1.456;2023-02-28T08:19:06;21.80;;;13.47;;
16870;SDS011;8552;48.120;-1.456;2023-02-28T08:21:32;23.57;;;12.80;;
16870;SDS011;8552;48.120;-1.456;2023-02-28T08:23:58;22.57;;;12.20;;
16870;SDS011;8552;48.120;-1.456;2023-02-28T08:26:24;22.87;;;13.33;;
16870;SDS011;8552;48.120;-1.456;2023-02-28T08:28:50;22.93;;;14.40;;
16870;SDS011;8552;48.120;-1.456;2023-02-28T08:31:17;25.60;;;16.20;;
16870;SDS011;8552;48.120;-1.456;2023-02-28T08:33:43;24.43;;;14.53;;
16870;SDS011;8552;48.120;-1.456;2023-02-28T08:36:10;25.43;;;13.47;;
16870;SDS011;8552;48.120;-1.456;2023-02-28T08:38:37;26.87;;;15.33;;
16870;SDS011;8552;48.120;-1.456;2023-02-28T08:41:04;28.10;;;15.47;;
16870;SDS011;8552;48.120;-1.456;2023-02-28T08:43:32;25.47;;;15.20;;
16870;SDS011;8552;48.120;-1.456;2023-02-28T08:45:58;21.80;;;13.70;;
16870;SDS011;8552;48.120;-1.456;2023-02-28T08:48:28;23.23;;;12.90;;
16870;SDS011;8552;48.120;-1.456;2023-02-28T08:50:55;26.40;;;13.67;;
16870;SDS011;8552;48.120;-1.456;2023-02-28T08:53:21;24.27;;;13.60;;
16870;SDS011;8552;48.120;-1.456;2023-02-28T08:55:47;27.30;;;14.87;;
16870;SDS011;8552;48.120;-1.456;2023-02-28T08:58:13;24.87;;;14.90;;
16870;SDS011;8552;48.120;-1.456;2023-02-28T09:00:39;23.33;;;12.73;;
16870;SDS011;8552;48.120;-1.456;2023-02-28T09:03:05;18.33;;;11.10;;
16870;SDS011;8552;48.120;-1.456;2023-02-28T09:05:31;23.70;;;12.37;;
16870;SDS011;8552;48.120;-1.456;2023-02-28T09:07:57;17.40;;;10.97;;
16870;SDS011;8552;48.120;-1.456;2023-02-28T09:10:23;16.87;;;9.53;;
16870;SDS011;8552;48.120;-1.456;2023-02-28T09:12:49;17.17;;;10.50;;
16870;SDS011;8552;48.120;-1.456;2023-02-28T09:15:15;17.13;;;10.93;;
16870;SDS011;8552;48.120;-1.456;2023-02-28T09:17:41;18.93;;;10.33;;
16870;SDS011;8552;48.120;-1.456;2023-02-28T09:20:07;16.23;;;9.90;;
16870;SDS011;8552;48.120;-1.456;2023-02-28T09:22:34;17.10;;;8.77;;
16870;SDS011;8552;48.120;-1.456;2023-02-28T09:25:00;11.93;;;7.67;;
16870;SDS011;8552;48.120;-1.456;2023-02-28T09:27:26;14.00;;;9.10;;
16870;SDS011;8552;48.120;-1.456;2023-02-28T09:29:52;14.97;;;7.93;;
16870;SDS011;8552;48.120;-1.456;2023-02-28T09:32:18;12.37;;;7.33;;
16870;SDS011;8552;48.120;-1.456;2023-02-28T09:34:44;12.67;;;8.20;;
16870;SDS011;8552;48.120;-1.456;2023-02-28T09:37:10;17.90;;;7.43;;
16870;SDS011;8552;48.120;-1.456;2023-02-28T09:39:36;13.17;;;7.93;;
16870;SDS011;8552;48.120;-1.456;2023-02-28T09:42:02;15.83;;;8.63;;
16870;SDS011;8552;48.120;-1.456;2023-02-28T09:44:33;12.37;;;7.17;;
16870;SDS011;8552;48.120;-1.456;2023-02-28T09:47:01;10.93;;;7.23;;
16870;SDS011;8552;48.120;-1.456;2023-02-28T09:49:34;11.10;;;6.93;;
16870;SDS011;8552;48.120;-1.456;2023-02-28T09:52:08;9.00;;;6.50;;
16870;SDS011;8552;48.120;-1.456;2023-02-28T09:54:35;9.73;;;6.57;;
16870;SDS011;8552;48.120;-1.456;2023-02-28T10:04:41;9.30;;;5.83;;
16870;SDS011;8552;48.120;-1.456;2023-02-28T10:09:54;9.30;;;6.47;;
16870;SDS011;8552;48.120;-1.456;2023-02-28T10:12:21;8.67;;;6.20;;
16870;SDS011;8552;48.120;-1.456;2023-02-28T10:14:47;10.53;;;6.43;;
16870;SDS011;8552;48.120;-1.456;2023-02-28T10:17:16;13.03;;;7.53;;
16870;SDS011;8552;48.120;-1.456;2023-02-28T10:22:14;13.50;;;6.57;;
16870;SDS011;8552;48.120;-1.456;2023-02-28T10:24:42;10.80;;;6.13;;
16870;SDS011;8552;48.120;-1.456;2023-02-28T10:27:17;7.37;;;4.33;;
16870;SDS011;8552;48.120;-1.456;2023-02-28T10:29:44;9.10;;;4.23;;
16870;SDS011;8552;48.120;-1.456;2023-02-28T10:32:13;5.40;;;3.30;;
16870;SDS011;8552;48.120;-1.456;2023-02-28T10:34:41;6.17;;;4.67;;
16870;SDS011;8552;48.120;-1.456;2023-02-28T10:37:07;6.03;;;3.80;;
16870;SDS011;8552;48.120;-1.456;2023-02-28T10:39:51;4.90;;;3.47;;
16870;SDS011;8552;48.120;-1.456;2023-02-28T10:42:35;5.40;;;4.30;;
16870;SDS011;8552;48.120;-1.456;2023-02-28T10:45:14;6.00;;;4.03;;
16870;SDS011;8552;48.120;-1.456;2023-02-28T10:47:51;6.23;;;3.47;;
16870;SDS011;8552;48.120;-1.456;2023-02-28T10:50:28;6.03;;;3.83;;
16870;SDS011;8552;48.120;-1.456;2023-02-28T10:53:00;5.20;;;3.17;;
16870;SDS011;8552;48.120;-1.456;2023-02-28T10:55:30;5.40;;;3.80;;
16870;SDS011;8552;48.120;-1.456;2023-02-28T10:57:57;5.07;;;3.80;;
16870;SDS011;8552;48.120;-1.456;2023-02-28T11:00:23;7.07;;;3.70;;
16870;SDS011;8552;48.120;-1.456;2023-02-28T11:02:50;6.60;;;3.27;;
16870;SDS011;8552;48.120;-1.456;2023-02-28T11:07:52;4.57;;;3.07;;
16870;SDS011;8552;48.120;-1.456;2023-02-28T11:10:19;4.37;;;2.63;;
16870;SDS011;8552;48.120;-1.456;2023-02-28T11:12:46;4.23;;;2.80;;
16870;SDS011;8552;48.120;-1.456;2023-02-28T11:17:54;3.43;;;3.10;;
16870;SDS011;8552;48.120;-1.456;2023-02-28T11:20:22;8.50;;;2.73;;
16870;SDS011;8552;48.120;-1.456;2023-02-28T11:22:49;4.47;;;3.10;;
16870;SDS011;8552;48.120;-1.456;2023-02-28T11:25:30;4.77;;;3.50;;
16870;SDS011;8552;48.120;-1.456;2023-02-28T11:27:57;4.93;;;3.13;;
16870;SDS011;8552;48.120;-1.456;2023-02-28T11:32:52;5.03;;;3.03;;
16870;SDS011;8552;48.120;-1.456;2023-02-28T11:35:21;5.70;;;4.03;;
16870;SDS011;8552;48.120;-1.456;2023-02-28T11:37:49;2.90;;;2.23;;
16870;SDS011;8552;48.120;-1.456;2023-02-28T11:40:16;4.30;;;2.83;;
16870;SDS011;8552;48.120;-1.456;2023-02-28T11:45:15;4.73;;;3.10;;
16870;SDS011;8552;48.120;-1.456;2023-02-28T11:47:48;6.27;;;4.17;;
16870;SDS011;8552;48.120;-1.456;2023-02-28T12:01:04;4.30;;;3.83;;
16870;SDS011;8552;48.120;-1.456;2023-02-28T12:03:43;6.23;;;4.00;;
16870;SDS011;8552;48.120;-1.456;2023-02-28T12:08:51;5.27;;;4.00;;
16870;SDS011;8552;48.120;-1.456;2023-02-28T12:16:36;4.77;;;4.10;;
16870;SDS011;8552;48.120;-1.456;2023-02-28T12:19:10;4.17;;;3.73;;
16870;SDS011;8552;48.120;-1.456;2023-02-28T12:27:09;4.13;;;3.72;;
16870;SDS011;8552;48.120;-1.456;2023-02-28T12:32:26;5.40;;;3.70;;
16870;SDS011;8552;48.120;-1.456;2023-02-28T12:35:02;5.57;;;4.30;;
16870;SDS011;8552;48.120;-1.456;2023-02-28T12:37:41;4.38;;;3.63;;
16870;SDS011;8552;48.120;-1.456;2023-02-28T12:40:12;4.68;;;3.63;;
16870;SDS011;8552;48.120;-1.456;2023-02-28T12:42:40;4.93;;;3.78;;
16870;SDS011;8552;48.120;-1.456;2023-02-28T12:45:31;7.57;;;4.35;;
16870;SDS011;8552;48.120;-1.456;2023-02-28T12:47:57;3.80;;;3.28;;
16870;SDS011;8552;48.120;-1.456;2023-02-28T12:50:26;6.20;;;4.00;;
16870;SDS011;8552;48.120;-1.456;2023-02-28T12:53:05;5.63;;;4.22;;
16870;SDS011;8552;48.120;-1.456;2023-02-28T12:55:35;5.22;;;4.18;;
16870;SDS011;8552;48.120;-1.456;2023-02-28T13:00:34;4.90;;;4.22;;
16870;SDS011;8552;48.120;-1.456;2023-02-28T13:03:12;5.30;;;4.30;;
16870;SDS011;8552;48.120;-1.456;2023-02-28T13:05:49;5.20;;;3.25;;
16870;SDS011;8552;48.120;-1.456;2023-02-28T13:10:48;4.55;;;3.47;;
16870;SDS011;8552;48.120;-1.456;2023-02-28T13:13:19;6.40;;;3.05;;
16870;SDS011;8552;48.120;-1.456;2023-02-28T13:16:06;6.05;;;3.10;;
16870;SDS011;8552;48.120;-1.456;2023-02-28T13:18:39;3.95;;;3.55;;
16870;SDS011;8552;48.120;-1.456;2023-02-28T13:21:08;4.97;;;3.28;;
16870;SDS011;8552;48.120;-1.456;2023-02-28T13:26:05;3.65;;;2.75;;
16870;SDS011;8552;48.120;-1.456;2023-02-28T13:31:18;3.58;;;3.15;;
16870;SDS011;8552;48.120;-1.456;2023-02-28T13:44:15;4.28;;;3.10;;
16870;SDS011;8552;48.120;-1.456;2023-02-28T13:59:30;6.50;;;4.70;;
16870;SDS011;8552;48.120;-1.456;2023-02-28T14:04:41;5.10;;;3.85;;
16870;SDS011;8552;48.120;-1.456;2023-02-28T14:07:16;11.38;;;8.40;;
16870;SDS011;8552;48.120;-1.456;2023-02-28T14:09:45;5.93;;;3.47;;
16870;SDS011;8552;48.120;-1.456;2023-02-28T14:14:59;6.70;;;4.53;;
16870;SDS011;8552;48.120;-1.456;2023-02-28T14:17:25;6.53;;;3.88;;
16870;SDS011;8552;48.120;-1.456;2023-02-28T14:19:51;3.75;;;3.40;;
16870;SDS011;8552;48.120;-1.456;2023-02-28T14:32:58;7.07;;;4.40;;
16870;SDS011;8552;48.120;-1.456;2023-02-28T14:37:53;5.38;;;4.05;;
16870;SDS011;8552;48.120;-1.456;2023-02-28T14:40:27;7.10;;;6.00;;
16870;SDS011;8552;48.120;-1.456;2023-02-28T14:42:56;8.63;;;6.97;;
16870;SDS011;8552;48.120;-1.456;2023-02-28T14:45:23;8.50;;;5.60;;
16870;SDS011;8552;48.120;-1.456;2023-02-28T14:47:50;10.43;;;8.30;;
16870;SDS011;8552;48.120;-1.456;2023-02-28T14:50:18;7.57;;;5.05;;
16870;SDS011;8552;48.120;-1.456;2023-02-28T14:52:45;11.63;;;7.30;;
16870;SDS011;8552;48.120;-1.456;2023-02-28T14:55:17;10.07;;;6.50;;
16870;SDS011;8552;48.120;-1.456;2023-02-28T14:57:53;5.13;;;4.10;;
16870;SDS011;8552;48.120;-1.456;2023-02-28T15:02:49;7.30;;;4.57;;
16870;SDS011;8552;48.120;-1.456;2023-02-28T15:05:19;6.73;;;4.33;;
16870;SDS011;8552;48.120;-1.456;2023-02-28T15:07:48;5.43;;;3.70;;
16870;SDS011;8552;48.120;-1.456;2023-02-28T15:10:19;6.30;;;5.43;;
16870;SDS011;8552;48.120;-1.456;2023-02-28T15:12:50;8.00;;;5.47;;
16870;SDS011;8552;48.120;-1.456;2023-02-28T15:15:17;8.67;;;6.53;;
16870;SDS011;8552;48.120;-1.456;2023-02-28T15:17:50;8.53;;;4.70;;
16870;SDS011;8552;48.120;-1.456;2023-02-28T15:20:18;6.00;;;4.67;;
16870;SDS011;8552;48.120;-1.456;2023-02-28T15:22:44;7.28;;;5.10;;
16870;SDS011;8552;48.120;-1.456;2023-02-28T15:25:13;6.67;;;5.10;;
16870;SDS011;8552;48.120;-1.456;2023-02-28T15:27:42;8.50;;;6.10;;
16870;SDS011;8552;48.120;-1.456;2023-02-28T15:30:15;5.63;;;4.60;;
16870;SDS011;8552;48.120;-1.456;2023-02-28T15:32:42;8.47;;;5.03;;
16870;SDS011;8552;48.120;-1.456;2023-02-28T15:37:47;6.57;;;5.20;;
16870;SDS011;8552;48.120;-1.456;2023-02-28T15:40:15;8.03;;;5.27;;
16870;SDS011;8552;48.120;-1.456;2023-02-28T15:42:42;10.00;;;6.73;;
16870;SDS011;8552;48.120;-1.456;2023-02-28T15:45:27;12.10;;;8.37;;
16870;SDS011;8552;48.120;-1.456;2023-02-28T15:47:53;9.27;;;6.47;;
16870;SDS011;8552;48.120;-1.456;2023-02-28T15:50:19;10.53;;;7.07;;
16870;SDS011;8552;48.120;-1.456;2023-02-28T15:52:45;14.63;;;9.87;;
16870;SDS011;8552;48.120;-1.456;2023-02-28T15:55:18;9.30;;;7.10;;
16870;SDS011;8552;48.120;-1.456;2023-02-28T15:57:45;15.03;;;8.70;;
16870;SDS011;8552;48.120;-1.456;2023-02-28T16:00:13;12.20;;;7.53;;
16870;SDS011;8552;48.120;-1.456;2023-02-28T16:02:39;12.60;;;8.67;;
16870;SDS011;8552;48.120;-1.456;2023-02-28T16:07:32;12.67;;;7.97;;
16870;SDS011;8552;48.120;-1.456;2023-02-28T16:09:58;13.40;;;8.33;;
16870;SDS011;8552;48.120;-1.456;2023-02-28T16:12:26;11.30;;;8.57;;
16870;SDS011;8552;48.120;-1.456;2023-02-28T16:14:53;11.57;;;8.73;;
16870;SDS011;8552;48.120;-1.456;2023-02-28T16:17:20;8.90;;;7.93;;
16870;SDS011;8552;48.120;-1.456;2023-02-28T16:19:47;9.80;;;8.03;;
16870;SDS011;8552;48.120;-1.456;2023-02-28T16:22:13;11.47;;;8.03;;
16870;SDS011;8552;48.120;-1.456;2023-02-28T16:24:39;11.80;;;8.90;;
16870;SDS011;8552;48.120;-1.456;2023-02-28T16:27:06;16.90;;;10.83;;
16870;SDS011;8552;48.120;-1.456;2023-02-28T16:29:35;13.33;;;10.27;;
16870;SDS011;8552;48.120;-1.456;2023-02-28T16:32:05;12.43;;;9.63;;
16870;SDS011;8552;48.120;-1.456;2023-02-28T16:34:32;14.27;;;9.37;;
16870;SDS011;8552;48.120;-1.456;2023-02-28T16:36:58;11.30;;;8.60;;
16870;SDS011;8552;48.120;-1.456;2023-02-28T16:39:24;11.37;;;8.77;;
16870;SDS011;8552;48.120;-1.456;2023-02-28T16:41:50;12.23;;;8.60;;
16870;SDS011;8552;48.120;-1.456;2023-02-28T16:44:27;12.00;;;9.10;;
16870;SDS011;8552;48.120;-1.456;2023-02-28T16:46:54;12.87;;;9.13;;
16870;SDS011;8552;48.120;-1.456;2023-02-28T16:49:20;10.00;;;8.10;;
16870;SDS011;8552;48.120;-1.456;2023-02-28T16:51:46;11.37;;;8.80;;
16870;SDS011;8552;48.120;-1.456;2023-02-28T16:54:12;26.73;;;15.83;;
16870;SDS011;8552;48.120;-1.456;2023-02-28T16:56:43;14.57;;;9.43;;
16870;SDS011;8552;48.120;-1.456;2023-02-28T16:59:09;14.10;;;8.80;;
16870;SDS011;8552;48.120;-1.456;2023-02-28T17:01:36;13.27;;;8.70;;
16870;SDS011;8552;48.120;-1.456;2023-02-28T17:04:02;13.70;;;9.37;;
16870;SDS011;8552;48.120;-1.456;2023-02-28T17:06:29;12.50;;;9.40;;